FW6014 Weather Reports


Display with metric or nautical units.
time (UTC)temp
F
wind
direction
speed
MPH
gust
MPH
rain 1hr
in
rain 24hr
in
rain mn
in
humidity
%
barometer
mb
20210723222502 63 77 0.0 0.0 0.00 0.06 0.06 92 1019.6
20210723222402 64 77 0.0 0.0 0.00 0.07 0.07 93 1019.9
20210723221902 63 77 0.0 0.0 0.00 0.07 0.07 94 1019.9
20210723221502 63 77 0.0 0.0 0.00 0.06 0.06 93 1019.4
20210723221401 63 77 0.0 0.0 0.00 0.07 0.07 93 1019.9
20210723221110 62 77 0.0 0.0 0.00 0.06 0.06 94 1019.4
20210723220901 63 77 0.0 0.0 0.00 0.07 0.07 92 1019.8
20210723220401 62 77 0.0 0.0 0.00 0.07 0.07 90 1019.7
20210723220134 62 77 0.0 0.0 0.02 0.06 0.06 92 1019.4
20210723215901 62 77 0.0 1.0 0.03 0.07 0.07 91 1019.9
20210723215403 62 77 0.0 1.0 0.03 0.07 0.07 91 1019.9
20210723215053 62 77 0.0 1.0 0.02 0.06 0.06 93 1019.5
20210723214901 62 73 0.0 1.0 0.03 0.07 0.07 93 1019.9
20210723214401 62 73 0.0 0.0 0.03 0.07 0.07 91 1019.9
20210723214050 62 73 0.0 0.0 0.02 0.06 0.06 91 1019.6
20210723213902 62 73 0.0 0.0 0.03 0.07 0.07 90 1020.0
20210723213400 62 73 0.0 0.0 0.03 0.07 0.07 94 1020.1
20210723213148 62 73 0.0 1.0 0.02 0.06 0.06 93 1019.7
20210723212902 62 73 0.0 1.0 0.03 0.07 0.07 94 1020.1
20210723212402 62 73 0.0 1.0 0.03 0.07 0.07 93 1020.0
20210723212042 61 86 0.0 1.0 0.02 0.06 0.06 91 1019.6
20210723211902 61 86 0.0 1.0 0.03 0.07 0.07 90 1020.0
20210723211402 62 93 0.0 1.0 0.03 0.07 0.07 89 1019.9
20210723211040 62 141 0.0 1.0 0.02 0.06 0.06 89 1019.5
20210723210902 62 96 0.0 1.0 0.03 0.07 0.07 86 1019.8
20210723210402 64 6 0.0 1.0 0.03 0.07 0.07 80 1020.0
20210723210151 64 320 0.0 1.0 0.01 0.04 0.04 77 1019.4
20210723205902 64 320 0.0 1.0 0.00 0.04 0.04 76 1020.0
20210723205401 65 38 0.0 0.0 0.00 0.04 0.04 75 1019.8
20210723205054 64 48 0.0 2.0 0.00 0.03 0.03 79 1019.2
20210723204900 65 48 0.0 2.0 0.00 0.04 0.04 75 1019.7
20210723204401 65 48 0.0 2.0 0.00 0.04 0.04 76 1019.8
20210723204033 66 332 0.0 2.0 0.00 0.03 0.03 74 1019.3
20210723203901 67 332 0.0 2.0 0.00 0.04 0.04 76 1019.7
20210723203402 68 345 0.0 2.0 0.00 0.04 0.04 67 1019.5
20210723203146 68 345 0.0 2.0 0.00 0.03 0.03 65 1018.9
20210723202901 68 355 0.0 2.0 0.00 0.04 0.04 66 1019.4
20210723202400 69 87 0.0 2.0 0.00 0.04 0.04 76 1019.2
20210723202030 69 75 0.0 2.0 0.00 0.03 0.03 74 1018.7
20210723201902 70 75 0.0 2.0 0.00 0.04 0.04 71 1019.2
20210723201402 72 22 1.0 3.0 0.00 0.04 0.04 63 1019.0
20210723201021 74 360 0.0 3.0 0.00 0.03 0.03 57 1018.5
20210723200901 75 1 1.0 3.0 0.00 0.04 0.04 57 1018.9
20210723200400 77 339 1.0 2.0 0.00 0.04 0.04 52 1018.7
20210723200046 78 335 0.0 1.0 0.00 0.03 0.03 50 1018.2
20210723195901 79 334 0.0 2.0 0.00 0.04 0.04 51 1018.6
20210723195400 79 334 0.0 2.0 0.00 0.04 0.04 60 1018.6
20210723195012 78 343 0.0 2.0 0.00 0.03 0.03 56 1018.1
20210723194902 79 337 0.0 2.0 0.00 0.04 0.04 58 1018.7
20210723194401 79 320 0.0 2.0 0.00 0.04 0.04 55 1018.7
20210723194001 79 271 0.0 1.0 0.00 0.03 0.03 55 1018.2
20210723193902 79 271 0.0 2.0 0.00 0.04 0.04 52 1018.7
20210723193402 79 271 0.0 2.0 0.00 0.04 0.04 56 1018.8
20210723193002 78 328 0.0 2.0 0.00 0.03 0.03 53 1018.3
20210723192902 78 44 0.0 2.0 0.00 0.04 0.04 56 1018.7
20210723192401 79 337 0.0 1.0 0.00 0.04 0.04 54 1018.8
20210723192004 79 15 0.0 1.0 0.00 0.03 0.03 56 1018.2
20210723191902 79 311 0.0 2.0 0.00 0.04 0.04 55 1018.7
20210723191402 78 335 0.0 2.0 0.00 0.04 0.04 56 1018.7
20210723190901 79 239 0.0 2.0 0.00 0.04 0.04 50 1018.5
20210723190557 78 300 0.0 0.0 0.00 0.03 0.03 57 1018.0
20210723190403 78 299 0.0 0.0 0.01 0.04 0.04 62 1018.4
20210723185900 78 338 0.0 0.0 0.01 0.04 0.04 60 1018.5
20210723185555 77 337 0.0 1.0 0.01 0.03 0.03 56 1017.9
20210723185401 77 338 0.0 3.0 0.01 0.04 0.04 58 1018.5
20210723184901 77 303 1.0 3.0 0.01 0.04 0.04 57 1018.5
20210723184722 77 224 0.0 2.0 0.01 0.03 0.03 60 1018.0
20210723184401 77 269 0.0 2.0 0.01 0.04 0.04 57 1018.4
20210723183901 76 341 0.0 3.0 0.01 0.04 0.04 64 1018.5
20210723183604 75 342 0.0 3.0 0.01 0.03 0.03 61 1018.0
20210723183400 76 342 1.0 3.0 0.01 0.04 0.04 64 1018.5
20210723182901 76 135 1.0 3.0 0.01 0.04 0.04 61 1018.5
20210723182606 75 253 0.0 3.0 0.01 0.03 0.03 58 1018.2
20210723182358 75 278 1.0 3.0 0.01 0.04 0.04 58 1018.7
20210723181857 73 346 0.0 1.0 0.01 0.04 0.04 71 1018.8
20210723181553 72 39 0.0 1.0 0.01 0.03 0.03 72 1018.5
20210723181357 72 39 0.0 3.0 0.01 0.04 0.04 71 1018.9
20210723180857 71 65 0.0 3.0 0.01 0.04 0.04 74 1019.0
20210723180530 71 65 1.0 3.0 0.01 0.03 0.03 72 1018.7
20210723180356 72 70 0.0 1.0 0.00 0.03 0.03 71 1019.2
20210723175859 73 226 0.0 2.0 0.00 0.03 0.03 62 1019.2
20210723175530 73 226 0.0 2.0 0.00 0.02 0.02 63 1018.8
20210723175356 74 225 0.0 2.0 0.00 0.03 0.03 62 1019.3
20210723174855 75 347 0.0 3.0 0.00 0.03 0.03 66 1019.3
20210723174536 75 1 1.0 3.0 0.00 0.02 0.02 64 1018.7
20210723174353 76 54 0.0 4.0 0.00 0.03 0.03 62 1019.2
20210723173849 76 320 0.0 4.0 0.00 0.03 0.03 70 1019.3
20210723173530 75 149 1.0 4.0 0.00 0.02 0.02 68 1018.8
20210723173348 75 266 0.0 2.0 0.00 0.03 0.03 68 1019.4
20210723172849 73 262 0.0 2.0 0.00 0.03 0.03 76 1019.3
20210723172537 72 302 0.0 2.0 0.00 0.02 0.02 74 1018.9
20210723172348 72 301 1.0 2.0 0.00 0.03 0.03 77 1019.4
20210723171850 72 88 0.0 2.0 0.00 0.03 0.03 79 1019.4
20210723171528 70 198 0.0 1.0 0.00 0.02 0.02 73 1018.9
20210723171348 70 167 0.0 1.0 0.00 0.03 0.03 73 1019.4
20210723170849 69 62 0.0 2.0 0.03 0.03 0.03 87 1019.5
20210723170518 67 61 0.0 2.0 0.02 0.02 0.02 85 1019.1
20210723170348 67 62 1.0 2.0 0.03 0.03 0.03 86 1019.6
20210723165847 67 82 0.0 1.0 0.03 0.03 0.03 95 1019.7
20210723165517 65 99 0.0 1.0 0.02 0.02 0.02 96 1019.3
20210723165348 65 99 0.0 2.0 0.03 0.03 0.03 94 1019.8
20210723164845 65 97 0.0 2.0 0.03 0.03 0.03 94 1019.8
20210723164538 64 96 0.0 2.0 0.02 0.02 0.02 93 1019.4
20210723164342 64 95 0.0 0.0 0.03 0.03 0.03 92 1019.9
20210723163843 65 99 0.0 0.0 0.03 0.03 0.03 93 1019.9
20210723163504 64 99 0.0 1.0 0.02 0.02 0.02 92 1019.5
20210723163343 64 100 0.0 1.0 0.03 0.03 0.03 92 1020.0
20210723162844 64 101 0.0 1.0 0.03 0.03 0.03 91 1020.0
20210723162504 64 115 0.0 1.0 0.02 0.02 0.02 89 1019.5
20210723162342 65 111 0.0 2.0 0.03 0.03 0.03 88 1019.9
20210723161844 66 90 0.0 3.0 0.03 0.03 0.03 84 1020.0
20210723161503 68 71 0.0 3.0 0.02 0.02 0.02 78 1019.6
20210723161344 69 105 1.0 3.0 0.03 0.03 0.03 74 1020.0
20210723160843 72 349 0.0 2.0 0.00 0.00 0.00 65 1020.1
20210723160345 73 341 0.0 2.0 0.00 0.00 0.00 58 1019.9
20210723155844 72 120 0.0 3.0 0.00 0.00 0.00 68 1019.9
20210723155502 71 46 0.0 3.0 0.00 0.00 0.00 63 1019.5
20210723155344 71 46 0.0 3.0 0.00 0.00 0.00 67 1019.9
20210723155129 70 68 1.0 3.0 0.00 0.00 0.00 67 1019.5
20210723154844 71 65 0.0 2.0 0.00 0.00 0.00 67 1019.9
20210723154501 70 90 0.0 2.0 0.00 0.00 0.00 66 1019.6
20210723154344 70 90 0.0 2.0 0.00 0.00 0.00 68 1020.0
20210723154100 71 80 0.0 2.0 0.00 0.00 0.00 68 1019.6
20210723153843 71 98 0.0 1.0 0.00 0.00 0.00 68 1020.0
20210723153343 72 297 0.0 1.0 0.00 0.00 0.00 60 1020.1
20210723153207 72 297 0.0 1.0 0.00 0.00 0.00 62 1019.6
20210723152842 73 297 0.0 1.0 0.00 0.00 0.00 64 1020.1
20210723152507 73 254 0.0 1.0 0.00 0.00 0.00 60 1019.6
20210723152342 74 254 0.0 2.0 0.00 0.00 0.00 62 1020.1
20210723151844 74 255 0.0 2.0 0.00 0.00 0.00 61 1020.1
20210723151343 74 330 0.0 4.0 0.00 0.00 0.00 60 1020.3
20210723151107 74 327 0.0 4.0 0.00 0.00 0.00 68 1019.9
20210723150843 74 284 0.0 4.0 0.00 0.00 0.00 62 1020.3
20210723150344 74 318 0.0 2.0 0.00 0.00 0.00 63 1020.3
20210723150159 73 318 0.0 2.0 0.00 0.00 0.00 64 1019.8
20210723145844 74 318 0.0 2.0 0.00 0.00 0.00 61 1020.3
20210723145343 74 162 0.0 1.0 0.00 0.00 0.00 66 1020.4
20210723145102 73 162 0.0 1.0 0.00 0.00 0.00 66 1019.9
20210723144843 73 174 0.0 1.0 0.00 0.00 0.00 67 1020.4
20210723144340 74 221 0.0 1.0 0.00 0.00 0.00 60 1020.4
20210723144057 74 111 0.0 1.0 0.00 0.00 0.00 70 1020.0
20210723143843 74 237 0.0 1.0 0.00 0.00 0.00 71 1020.4
20210723143338 73 159 0.0 1.0 0.00 0.00 0.00 69 1020.5
20210723143136 72 158 0.0 1.0 0.00 0.00 0.00 69 1020.0
20210723142838 72 86 0.0 2.0 0.00 0.00 0.00 68 1020.4
20210723142336 72 87 0.0 2.0 0.00 0.00 0.00 68 1020.5
20210723142057 71 94 0.0 2.0 0.00 0.00 0.00 71 1020.1
20210723141833 72 316 0.0 2.0 0.00 0.00 0.00 69 1020.5
20210723141332 71 317 1.0 2.0 0.00 0.00 0.00 75 1020.6
20210723141051 71 264 0.0 2.0 0.00 0.00 0.00 74 1020.2
20210723140832 71 115 1.0 2.0 0.00 0.00 0.00 76 1020.6
20210723140330 71 94 0.0 2.0 0.00 0.00 0.00 70 1020.6
20210723140228 71 269 0.0 2.0 0.00 0.00 0.00 74 1020.3
20210723135829 71 269 0.0 2.0 0.00 0.00 0.00 74 1020.7
20210723135329 70 51 0.0 1.0 0.00 0.00 0.00 78 1020.6
20210723135036 70 62 0.0 1.0 0.00 0.00 0.00 78 1020.2
20210723134829 70 63 1.0 2.0 0.00 0.00 0.00 78 1020.6
20210723134330 69 82 1.0 3.0 0.00 0.00 0.00 78 1020.6
20210723134044 68 142 1.0 3.0 0.00 0.00 0.00 76 1020.2
20210723133833 69 93 0.0 3.0 0.00 0.00 0.00 79 1020.6
20210723133330 69 63 0.0 3.0 0.00 0.00 0.00 76 1020.6
20210723133100 68 96 0.0 1.0 0.00 0.00 0.00 78 1020.2
20210723132829 68 67 0.0 1.0 0.00 0.00 0.00 77 1020.6
20210723132329 67 65 1.0 3.0 0.00 0.00 0.00 80 1020.6
20210723132019 66 81 0.0 3.0 0.00 0.00 0.00 82 1020.3
20210723131830 67 73 1.0 3.0 0.00 0.00 0.00 82 1020.6
20210723131330 66 92 1.0 4.0 0.00 0.00 0.00 78 1020.6
20210723131027 66 96 1.0 4.0 0.00 0.00 0.00 81 1020.4
20210723130830 67 77 1.0 4.0 0.00 0.00 0.00 80 1020.7
20210723130329 66 103 0.0 2.0 0.00 0.00 0.00 84 1020.7
20210723130007 65 75 0.0 2.0 0.00 0.00 0.00 84 1020.3
20210723125829 65 74 0.0 2.0 0.00 0.00 0.00 84 1020.6
20210723125330 64 80 1.0 2.0 0.00 0.00 0.00 85 1020.6
20210723125003 63 90 0.0 2.0 0.00 0.00 0.00 87 1020.3
20210723124830 64 90 1.0 3.0 0.00 0.00 0.00 87 1020.5
20210723124624 63 102 1.0 3.0 0.00 0.00 0.00 87 1020.3
20210723124330 63 76 1.0 3.0 0.00 0.00 0.00 87 1020.7
20210723123830 62 77 1.0 1.0 0.00 0.00 0.00 88 1020.6
20210723123609 62 91 0.0 1.0 0.00 0.00 0.00 88 1020.3
20210723123330 62 91 1.0 1.0 0.00 0.00 0.00 88 1020.5
20210723122829 62 91 1.0 1.0 0.00 0.00 0.00 88 1020.6
20210723122551 61 86 0.0 1.0 0.00 0.00 0.00 88 1020.2
20210723122329 61 86 1.0 2.0 0.00 0.00 0.00 89 1020.5
20210723121829 61 94 1.0 2.0 0.00 0.00 0.00 89 1020.5
20210723121601 60 84 1.0 2.0 0.00 0.00 0.00 90 1020.1
20210723121329 60 107 1.0 2.0 0.00 0.00 0.00 90 1020.4
20210723120831 59 93 0.0 1.0 0.00 0.00 0.00 92 1020.4
20210723120550 58 92 0.0 1.0 0.00 0.00 0.00 92 1020.1
20210723120329 58 89 0.0 0.0 0.00 0.00 0.00 92 1020.4
20210723115830 58 94 0.0 0.0 0.00 0.00 0.00 93 1020.4
20210723115544 57 85 0.0 0.0 0.00 0.00 0.00 93 1019.9
20210723115330 58 85 0.0 0.0 0.00 0.00 0.00 93 1020.3
20210723114829 57 53 0.0 0.0 0.00 0.00 0.00 94 1020.3
20210723114654 57 54 0.0 0.0 0.00 0.00 0.00 95 1019.9
20210723114328 57 33 0.0 0.0 0.00 0.00 0.00 95 1020.3
20210723113826 56 332 0.0 0.0 0.00 0.00 0.00 96 1020.2
20210723113532 56 332 0.0 0.0 0.00 0.00 0.00 96 1019.8
20210723113324 56 332 0.0 0.0 0.00 0.00 0.00 96 1020.2
20210723112824 55 332 0.0 0.0 0.00 0.00 0.00 96 1020.1
20210723112529 55 332 0.0 0.0 0.00 0.00 0.00 96 1019.9
20210723112320 55 332 0.0 0.0 0.00 0.00 0.00 97 1020.1
20210723111818 55 326 0.0 0.0 0.00 0.00 0.00 97 1020.0
20210723111544 54 326 0.0 0.0 0.00 0.00 0.00 97 1019.7
20210723111317 54 326 0.0 0.0 0.00 0.00 0.00 97 1020.0
20210723110815 54 323 0.0 0.0 0.00 0.00 0.00 97 1020.0
20210723110530 53 323 0.0 0.0 0.00 0.00 0.00 97 1019.6
20210723110313 54 323 0.0 0.0 0.00 0.00 0.00 97 1019.9
20210723105813 54 323 0.0 0.0 0.00 0.00 0.00 97 1019.9
20210723105532 53 323 0.0 0.0 0.00 0.00 0.00 97 1019.6
20210723105312 54 323 0.0 0.0 0.00 0.00 0.00 97 1019.9
20210723104809 54 323 0.0 0.0 0.00 0.00 0.00 96 1019.9
20210723104549 53 323 0.0 0.0 0.00 0.00 0.00 96 1019.6
20210723104308 53 323 0.0 0.0 0.00 0.00 0.00 96 1019.9
20210723103809 53 323 0.0 0.0 0.00 0.00 0.00 96 1019.9
20210723103511 53 323 0.0 0.0 0.00 0.00 0.00 96 1019.6
20210723103306 54 323 0.0 0.0 0.00 0.00 0.00 96 1019.8
20210723102804 54 323 0.0 0.0 0.00 0.00 0.00 96 1019.8
20210723102504 53 323 0.0 0.0 0.00 0.00 0.00 96 1019.4
20210723102306 54 323 0.0 0.0 0.00 0.00 0.00 96 1019.7
20210723101804 54 323 0.0 0.0 0.00 0.00 0.00 96 1019.7
20210723101508 53 323 0.0 0.0 0.00 0.00 0.00 96 1019.4
20210723101302 54 323 0.0 0.0 0.00 0.00 0.00 96 1019.7
20210723101114 53 323 0.0 0.0 0.00 0.00 0.00 96 1019.4
20210723100801 54 323 0.0 0.0 0.00 0.00 0.00 96 1019.7
20210723100302 54 323 0.0 0.0 0.00 0.00 0.00 96 1019.6
20210723100143 53 323 0.0 0.0 0.00 0.00 0.00 96 1019.3
20210723095801 54 323 0.0 0.0 0.00 0.00 0.00 95 1019.5
20210723095306 54 323 0.0 0.0 0.00 0.00 0.00 95 1019.6
20210723095142 54 323 0.0 0.0 0.00 0.00 0.00 95 1019.2
20210723094802 54 323 0.0 0.0 0.00 0.00 0.00 95 1019.6
20210723094302 54 323 0.0 0.0 0.00 0.00 0.00 95 1019.6
20210723094040 54 323 0.0 0.0 0.00 0.00 0.00 95 1019.1
20210723093801 54 323 0.0 0.0 0.00 0.00 0.00 95 1019.5
20210723093301 54 323 0.0 0.0 0.00 0.00 0.00 94 1019.5
20210723093211 54 323 0.0 0.0 0.00 0.00 0.00 94 1019.1
20210723092803 55 323 0.0 0.0 0.00 0.00 0.00 94 1019.4
20210723092304 54 323 0.0 0.0 0.00 0.00 0.00 94 1019.4
20210723092031 54 323 0.0 0.0 0.00 0.00 0.00 94 1019.0
20210723091803 54 323 0.0 0.0 0.00 0.00 0.00 95 1019.4
20210723091301 55 323 0.0 0.0 0.00 0.00 0.00 95 1019.2
20210723091031 54 323 0.0 0.0 0.00 0.00 0.00 95 1018.9
20210723090801 55 323 0.0 0.0 0.00 0.00 0.00 94 1019.3
20210723090303 55 323 0.0 0.0 0.00 0.00 0.00 94 1019.3
20210723090052 55 323 0.0 0.0 0.00 0.00 0.00 94 1018.8
20210723085801 55 323 0.0 0.0 0.00 0.00 0.00 94 1019.2
20210723085305 55 323 0.0 0.0 0.00 0.00 0.00 94 1019.2
20210723085042 55 323 0.0 0.0 0.00 0.00 0.00 94 1018.9
20210723084801 55 323 0.0 0.0 0.00 0.00 0.00 94 1019.2
20210723084302 55 323 0.0 0.0 0.00 0.00 0.00 94 1019.2
20210723084044 55 323 0.0 0.0 0.00 0.00 0.00 94 1018.9
20210723083801 55 323 0.0 0.0 0.00 0.00 0.00 94 1019.1
20210723083254 56 323 0.0 0.0 0.00 0.00 0.00 94 1019.1
20210723083044 55 323 0.0 0.0 0.00 0.00 0.00 94 1018.7
20210723082750 56 323 0.0 0.0 0.00 0.00 0.00 94 1019.1
20210723082250 56 323 0.0 0.0 0.00 0.00 0.00 94 1019.2
20210723082020 55 323 0.0 0.0 0.00 0.00 0.00 94 1018.8
20210723081749 56 323 0.0 0.0 0.00 0.00 0.00 94 1019.1
20210723081251 56 77 0.0 0.0 0.00 0.00 0.00 94 1019.0
20210723081022 55 77 0.0 0.0 0.00 0.00 0.00 94 1018.6
20210723080749 55 77 0.0 0.0 0.00 0.00 0.00 94 1018.9
20210723080248 56 77 0.0 0.0 0.00 0.00 0.00 93 1019.0
20210723080011 55 77 0.0 0.0 0.00 0.00 0.00 94 1018.6
20210723075747 56 77 0.0 0.0 0.00 0.00 0.00 93 1019.0
20210723075245 56 77 0.0 0.0 0.00 0.00 0.00 93 1019.0
20210723075004 55 77 0.0 0.0 0.00 0.00 0.00 93 1018.6
20210723074746 56 77 0.0 0.0 0.00 0.00 0.00 93 1019.1
20210723074244 56 77 0.0 0.0 0.00 0.00 0.00 93 1019.0
20210723074002 55 77 0.0 0.0 0.00 0.00 0.00 93 1018.6
20210723073745 56 77 0.0 0.0 0.00 0.00 0.00 93 1019.0
20210723073243 56 77 0.0 0.0 0.00 0.00 0.00 92 1019.0
20210723073011 55 77 0.0 0.0 0.00 0.00 0.00 92 1018.6
20210723072745 56 77 0.0 0.0 0.00 0.00 0.00 91 1019.0
20210723072243 56 77 0.0 0.0 0.00 0.00 0.00 92 1019.0
20210723072011 56 77 0.0 0.0 0.00 0.00 0.00 91 1018.7
20210723071738 56 77 0.0 0.0 0.00 0.00 0.00 91 1019.1
20210723071238 56 77 0.0 0.0 0.00 0.00 0.00 90 1019.1
20210723071007 56 77 0.0 0.0 0.00 0.00 0.00 91 1018.8
20210723070736 56 77 0.0 0.0 0.00 0.00 0.00 90 1019.2
20210723070235 56 77 0.0 0.0 0.00 0.00 0.00 91 1019.2
20210723070006 56 77 0.0 0.0 0.00 0.00 0.00 91 1018.8
20210723065734 56 77 0.0 0.0 0.00 0.00 0.00 90 1019.2
20210723065235 57 77 0.0 0.0 0.00 0.00 0.00 88 1019.1
20210723065002 57 77 0.0 0.0 0.00 0.00 0.00 88 1018.7
20210723064735 58 77 0.0 0.0 0.00 0.00 0.00 87 1019.1
20210723064231 58 77 0.0 0.0 0.00 0.00 0.00 88 1019.1
20210723064002 58 77 0.0 0.0 0.00 0.00 0.00 87 1018.7
20210723063731 58 77 0.0 0.0 0.00 0.00 0.00 86 1019.0
20210723063233 58 77 0.0 0.0 0.00 0.00 0.00 85 1019.0
20210723062731 58 72 0.0 0.0 0.00 0.00 0.00 88 1019.0
20210723062618 58 72 0.0 0.0 0.00 0.00 0.00 89 1018.7
20210723062232 58 72 0.0 1.0 0.00 0.00 0.00 88 1019.1
20210723061814 58 71 0.0 1.0 0.00 0.00 0.00 87 1018.9
20210723061732 58 71 0.0 1.0 0.00 0.00 0.00 87 1019.2
20210723061231 58 71 1.0 2.0 0.00 0.00 0.00 87 1019.2
20210723060732 58 86 1.0 2.0 0.00 0.00 0.00 87 1019.2
20210723060231 57 88 0.0 2.0 0.00 0.00 0.00 90 1019.2
20210723055731 56 75 0.0 0.0 0.00 0.00 0.00 92 1019.2
20210723055600 56 75 0.0 0.0 0.00 0.00 0.00 92 1018.8
20210723055232 56 75 0.0 0.0 0.00 0.00 0.00 91 1019.1
20210723054731 56 75 0.0 0.0 0.00 0.00 0.00 91 1019.0
20210723054653 56 75 0.0 0.0 0.00 0.00 0.00 91 1018.6
20210723054231 56 75 0.0 1.0 0.00 0.00 0.00 91 1019.1
20210723053732 57 75 0.0 1.0 0.00 0.00 0.00 90 1019.1
20210723053556 57 76 0.0 1.0 0.00 0.00 0.00 89 1018.7
20210723053232 58 76 0.0 1.0 0.00 0.00 0.00 89 1019.1
20210723052729 57 76 0.0 1.0 0.00 0.00 0.00 89 1019.1
20210723052604 57 76 0.0 1.0 0.00 0.00 0.00 90 1018.8
20210723052230 58 76 0.0 0.0 0.00 0.00 0.00 89 1019.1
20210723051730 58 75 0.0 0.0 0.00 0.00 0.00 89 1019.2
20210723051612 57 76 0.0 0.0 0.00 0.00 0.00 89 1018.8
20210723051231 58 76 0.0 0.0 0.00 0.00 0.00 89 1019.2
20210723050730 58 76 0.0 1.0 0.00 0.00 0.00 88 1019.3
20210723050602 58 76 0.0 1.0 0.00 0.00 0.00 88 1018.9
20210723050230 59 76 0.0 1.0 0.00 0.00 0.00 87 1019.3
20210723045731 60 76 1.0 2.0 0.00 0.00 0.00 86 1019.3
20210723045558 59 76 0.0 2.0 0.00 0.00 0.00 85 1018.9
20210723045229 60 76 0.0 2.0 0.00 0.00 0.00 84 1019.3
20210723044729 60 56 0.0 0.0 0.00 0.00 0.00 85 1019.4
20210723044628 59 56 0.0 0.0 0.00 0.00 0.00 85 1019.0
20210723044229 60 51 0.0 0.0 0.00 0.00 0.00 85 1019.5
20210723043730 60 51 0.0 0.0 0.00 0.00 0.00 87 1019.4
20210723043557 59 51 0.0 0.0 0.00 0.00 0.00 86 1019.1
20210723043228 59 51 0.0 0.0 0.00 0.00 0.00 85 1019.4
20210723042730 59 51 0.0 0.0 0.00 0.00 0.00 86 1019.5
20210723042547 59 51 0.0 0.0 0.00 0.00 0.00 87 1019.2
20210723042229 60 51 0.0 0.0 0.00 0.00 0.00 87 1019.5
20210723041729 60 82 0.0 0.0 0.00 0.00 0.00 86 1019.5
20210723041645 60 82 0.0 0.0 0.00 0.00 0.00 84 1019.1
20210723041231 60 82 0.0 0.0 0.00 0.00 0.00 83 1019.4
20210723040729 60 82 0.0 0.0 0.00 0.00 0.00 83 1019.4
20210723040539 60 82 0.0 0.0 0.00 0.00 0.00 83 1019.0
20210723040229 60 82 0.0 0.0 0.00 0.00 0.00 83 1019.4
20210723035729 60 82 0.0 1.0 0.00 0.00 0.00 84 1019.4
20210723035537 60 82 0.0 1.0 0.00 0.00 0.00 84 1019.1
20210723035230 60 82 0.0 2.0 0.00 0.00 0.00 83 1019.5
20210723034730 60 82 0.0 2.0 0.00 0.00 0.00 83 1019.4
20210723034606 60 82 1.0 2.0 0.00 0.00 0.00 85 1019.1
20210723034228 60 96 0.0 0.0 0.00 0.00 0.00 86 1019.5
20210723033730 60 97 0.0 1.0 0.00 0.00 0.00 85 1019.4
20210723033531 60 89 0.0 1.0 0.00 0.00 0.00 84 1019.1
20210723033228 60 89 0.0 1.0 0.00 0.00 0.00 85 1019.4
20210723032729 60 90 1.0 2.0 0.00 0.00 0.00 86 1019.5
20210723032531 60 90 0.0 2.0 0.00 0.00 0.00 85 1019.1
20210723032230 60 90 1.0 2.0 0.00 0.00 0.00 86 1019.4
20210723031729 60 49 0.0 1.0 0.00 0.00 0.00 87 1019.5
20210723031544 59 49 0.0 1.0 0.00 0.00 0.00 87 1019.0
20210723031230 60 359 0.0 1.0 0.00 0.00 0.00 89 1019.5
20210723030732 60 345 0.0 1.0 0.00 0.00 0.00 89 1019.5
20210723030538 60 345 0.0 1.0 0.00 0.00 0.00 89 1019.2
20210723030229 60 345 0.0 2.0 0.00 0.00 0.00 88 1019.4
20210723025731 61 92 0.0 2.0 0.00 0.00 0.00 84 1019.4
20210723025537 60 96 0.0 2.0 0.00 0.00 0.00 85 1019.0
20210723025230 61 120 0.0 0.0 0.00 0.00 0.00 85 1019.3
20210723024731 61 120 0.0 0.0 0.00 0.00 0.00 85 1019.3
20210723024602 60 120 0.0 0.0 0.00 0.00 0.00 84 1018.9
20210723024229 61 120 0.0 0.0 0.00 0.00 0.00 85 1019.2
20210723023730 60 120 0.0 0.0 0.00 0.00 0.00 85 1019.1
20210723023531 60 120 0.0 0.0 0.00 0.00 0.00 86 1018.7
20210723023229 61 120 0.0 0.0 0.00 0.00 0.00 87 1019.1
20210723022729 61 120 0.0 0.0 0.00 0.00 0.00 84 1019.1
20210723022520 60 120 0.0 0.0 0.00 0.00 0.00 84 1018.6
20210723022229 61 120 0.0 0.0 0.00 0.00 0.00 84 1019.1
20210723021730 61 120 0.0 0.0 0.00 0.00 0.00 84 1019.1
20210723021512 61 120 0.0 0.0 0.00 0.00 0.00 84 1018.6
20210723021229 61 120 0.0 0.0 0.00 0.00 0.00 84 1019.0
20210723020730 61 120 0.0 0.0 0.00 0.00 0.00 83 1019.1
20210723020506 61 120 0.0 0.0 0.00 0.00 0.00 84 1018.7
20210723020230 61 120 0.0 0.0 0.00 0.00 0.00 84 1019.1
20210723015731 61 121 0.0 0.0 0.00 0.00 0.00 85 1019.2
20210723015502 60 121 0.0 0.0 0.00 0.00 0.00 85 1018.8
20210723015229 61 121 0.0 0.0 0.00 0.00 0.00 86 1019.3
20210723014731 62 122 0.0 0.0 0.00 0.00 0.00 85 1019.2
20210723014505 61 122 0.0 0.0 0.00 0.00 0.00 85 1018.8
20210723014230 62 122 0.0 0.0 0.00 0.00 0.00 85 1019.2
20210723013729 62 120 0.0 0.0 0.00 0.00 0.00 83 1019.3
20210723013502 61 120 0.0 0.0 0.00 0.00 0.00 82 1018.9
20210723013228 62 121 0.0 0.0 0.00 0.00 0.00 83 1019.3
20210723012730 62 121 0.0 0.0 0.00 0.00 0.00 85 1019.3
20210723012502 61 121 0.0 0.0 0.00 0.00 0.00 84 1018.9
20210723012229 62 120 0.0 0.0 0.00 0.00 0.00 85 1019.4
20210723011729 62 120 0.0 0.0 0.00 0.00 0.00 84 1019.3
20210723011502 61 121 0.0 0.0 0.00 0.00 0.00 83 1018.8
20210723011228 61 121 0.0 1.0 0.00 0.00 0.00 85 1019.3
20210723010729 61 121 0.0 2.0 0.00 0.00 0.00 84 1019.3
20210723010504 60 121 0.0 2.0 0.00 0.00 0.00 84 1019.0
20210723010230 61 316 0.0 2.0 0.00 0.00 0.00 84 1019.4
20210723005729 61 64 0.0 0.0 0.00 0.00 0.00 83 1019.2
20210723005502 61 64 0.0 0.0 0.00 0.00 0.00 83 1018.6
20210723005229 61 64 0.0 0.0 0.00 0.00 0.00 83 1019.1
20210723004730 62 64 0.0 0.0 0.00 0.00 0.00 83 1018.9
20210723004508 61 63 0.0 0.0 0.00 0.00 0.00 81 1018.4
20210723004229 62 63 0.0 0.0 0.00 0.00 0.00 84 1018.7
20210723003729 62 64 0.0 0.0 0.00 0.00 0.00 80 1018.6
20210723003505 62 63 0.0 0.0 0.00 0.00 0.00 80 1018.1
20210723003229 62 64 0.0 0.0 0.00 0.00 0.00 81 1018.5
20210723002730 63 63 0.0 0.0 0.00 0.00 0.00 81 1018.4
20210723002514 63 64 0.0 0.0 0.00 0.00 0.00 84 1017.9
20210723002230 63 64 0.0 0.0 0.00 0.00 0.00 82 1018.4
20210723002100 63 63 0.0 0.0 0.00 0.00 0.00 81 1017.9
20210723001729 64 64 0.0 0.0 0.00 0.00 0.00 78 1018.4
20210723001504 63 64 0.0 0.0 0.00 0.00 0.00 75 1017.8
20210723001230 64 63 0.0 0.0 0.00 0.00 0.00 76 1018.4
20210723001057 64 64 0.0 0.0 0.00 0.00 0.00 75 1017.9
20210723000729 65 63 0.0 0.0 0.00 0.00 0.00 77 1018.3
20210723000228 65 64 0.0 0.0 0.00 0.00 0.00 79 1018.3
20210723000158 64 63 0.0 0.0 0.00 0.00 0.00 75 1017.7
20210722235729 65 63 0.0 0.0 0.00 0.00 0.00 76 1018.1
20210722235230 66 63 0.0 0.0 0.00 0.00 0.00 77 1018.1
20210722235050 65 63 0.0 0.0 0.00 0.00 0.00 76 1017.6
20210722234731 66 63 0.0 0.0 0.00 0.00 0.00 76 1018.1
20210722234228 67 63 0.0 0.0 0.00 0.00 0.00 75 1018.2
20210722234047 66 63 0.0 0.0 0.00 0.00 0.00 74 1017.7
20210722233729 67 63 0.0 0.0 0.00 0.00 0.00 74 1018.2
20210722233229 67 63 0.0 0.0 0.00 0.00 0.00 73 1018.2
20210722233050 67 63 0.0 0.0 0.00 0.00 0.00 71 1017.6
20210722232729 67 63 0.0 0.0 0.00 0.00 0.00 73 1018.1
20210722232230 68 63 0.0 0.0 0.00 0.00 0.00 70 1018.1
20210722232031 67 62 0.0 0.0 0.00 0.00 0.00 71 1017.6
20210722231730 68 62 0.0 0.0 0.00 0.00 0.00 72 1018.1
20210722231230 68 62 0.0 0.0 0.00 0.00 0.00 67 1018.0
20210722231030 68 62 0.0 0.0 0.00 0.00 0.00 67 1017.5
20210722230729 68 62 0.0 0.0 0.00 0.00 0.00 70 1017.9
20210722230228 69 30 0.0 0.0 0.00 0.00 0.00 73 1017.8
20210722230024 69 30 0.0 0.0 0.00 0.00 0.00 68 1017.4
20210722225730 70 27 0.0 0.0 0.00 0.00 0.00 66 1017.8
20210722225228 70 27 0.0 0.0 0.00 0.00 0.00 60 1017.8
20210722225017 70 27 0.0 0.0 0.00 0.00 0.00 59 1017.3
20210722224730 70 28 0.0 0.0 0.00 0.00 0.00 61 1017.7
20210722224228 70 28 0.0 0.0 0.00 0.00 0.00 62 1017.5
20210722224010 70 28 0.0 1.0 0.00 0.00 0.00 63 1017.0
20210722223730 71 28 0.0 1.0 0.00 0.00 0.00 60 1017.4
20210722223230 71 28 0.0 1.0 0.00 0.00 0.00 59 1017.4
20210722223019 70 28 0.0 1.0 0.00 0.00 0.00 60 1017.0